Time;durP1;ratioP1;P1;durP2;ratioP2;P2;SDS_P1;SDS_P2;PMS_P1;PMS_P2;Temp;Humidity;BMP_temperature;BMP_pressure;BME280_temperature;BME280_humidity;BME280_pressure;Samples;Min_cycle;Max_cycle;Signal;HPM_P1;HPM_P2
2021/12/01 00:01:56;;;;;;;8.75;6.75;;;;;;;1.84;94.94;98626.94;1525747;88;25954;-80
2021/12/01 00:04:23;;;;;;;11.68;7.70;;;;;;;1.83;94.58;98642.48;1587787;88;27558;-81
2021/12/01 00:06:50;;;;;;;11.93;7.12;;;;;;;1.80;94.66;98655.19;1595714;88;25967;-81
2021/12/01 00:09:17;;;;;;;9.45;6.95;;;;;;;1.79;94.60;98668.91;1573135;89;25851;-81
2021/12/01 00:11:44;;;;;;;11.63;7.90;;;;;;;1.78;94.12;98675.17;1570828;88;26129;-81
2021/12/01 00:14:11;;;;;;;12.43;8.90;;;;;;;1.77;93.67;98683.28;1552914;88;26734;-81
2021/12/01 00:16:38;;;;;;;10.32;7.12;;;;;;;1.76;93.90;98687.73;1572277;88;28261;-81
2021/12/01 00:19:05;;;;;;;13.10;7.55;;;;;;;1.76;93.87;98693.01;1573833;88;25409;-81
2021/12/01 00:21:32;;;;;;;11.60;7.85;;;;;;;1.74;93.43;98710.02;1556397;89;26387;-82
2021/12/01 00:23:59;;;;;;;13.83;9.98;;;;;;;1.74;93.55;98717.44;1588589;87;26097;-82
2021/12/01 00:26:26;;;;;;;9.13;6.45;;;;;;;1.75;93.63;98724.38;1625276;87;25856;-82
2021/12/01 00:28:54;;;;;;;12.43;8.35;;;;;;;1.77;93.71;98738.70;1626981;87;28126;-81
2021/12/01 00:31:21;;;;;;;13.35;8.38;;;;;;;1.77;93.57;98744.81;1567262;88;26483;-81
2021/12/01 00:33:49;;;;;;;12.15;8.93;;;;;;;1.74;93.25;98750.43;1588833;88;25847;-82
2021/12/01 00:36:16;;;;;;;12.00;8.25;;;;;;;1.73;93.29;98757.21;1627002;87;26157;-80
2021/12/01 00:38:44;;;;;;;9.18;6.62;;;;;;;1.74;93.27;98760.16;1601127;88;26075;-81
2021/12/01 00:41:13;;;;;;;12.20;8.60;;;;;;;1.74;93.13;98774.67;1551942;88;28345;-81
2021/12/01 00:43:40;;;;;;;10.63;7.50;;;;;;;1.73;93.18;98778.33;1559200;88;26047;-82
2021/12/01 00:46:19;;;;;;;12.30;8.55;;;;;;;1.72;92.80;98780.63;1610739;88;26681;-81
2021/12/01 00:48:38;;;;;;;;;;;;;;;1.72;92.98;98783.27;1591692;88;25463;-82
2021/12/01 00:51:05;;;;;;;13.72;8.78;;;;;;;1.71;92.63;98792.20;1593316;87;25903;-81
2021/12/01 00:53:32;;;;;;;12.55;8.53;;;;;;;1.69;92.97;98791.55;1616455;87;28239;-81
2021/12/01 00:55:59;;;;;;;12.95;8.48;;;;;;;1.68;92.99;98803.92;1628576;87;25819;-81
2021/12/01 00:58:26;;;;;;;13.43;9.08;;;;;;;1.68;92.82;98808.37;1573327;87;25740;-82
2021/12/01 01:00:54;;;;;;;14.45;9.30;;;;;;;1.67;92.70;98816.77;1566543;88;26869;-83
2021/12/01 01:03:21;;;;;;;13.28;8.85;;;;;;;1.67;92.87;98816.77;1607849;88;26002;-82
2021/12/01 01:05:49;;;;;;;15.13;9.70;;;;;;;1.67;92.79;98823.89;1628034;87;27500;-82
2021/12/01 01:08:17;;;;;;;13.70;8.95;;;;;;;1.69;92.99;98829.82;1581645;87;26495;-82
2021/12/01 01:18:50;;;;;;;15.28;9.30;;;;;;;1.67;92.79;98874.03;1581014;87;27371;-81
2021/12/01 01:21:19;;;;;;;12.75;9.60;;;;;;;1.67;92.72;98886.71;1587401;88;25903;-81
2021/12/01 01:23:46;;;;;;;14.10;10.50;;;;;;;1.66;92.87;98890.36;1609500;88;25822;-82
2021/12/01 01:26:18;;;;;;;15.65;10.75;;;;;;;1.66;92.83;98900.09;1615078;87;26096;-81
2021/12/01 01:28:46;;;;;;;15.30;10.58;;;;;;;1.68;93.02;98911.30;1586565;87;26210;-81
2021/12/01 01:31:13;;;;;;;15.85;10.80;;;;;;;1.68;92.86;98920.04;1611789;86;27412;-82
2021/12/01 01:33:41;;;;;;;15.45;10.68;;;;;;;1.68;93.09;98917.41;1616414;87;26017;-80
2021/12/01 01:36:09;;;;;;;18.10;10.98;;;;;;;1.70;93.10;98925.97;1629656;87;25914;-82
2021/12/01 01:38:36;;;;;;;15.08;10.82;;;;;;;1.73;93.07;98928.28;1585617;87;26180;-82
2021/12/01 01:41:06;;;;;;;15.83;10.38;;;;;;;1.73;92.84;98928.77;1572392;88;25727;-81
2021/12/01 01:43:34;;;;;;;17.90;11.85;;;;;;;1.73;92.98;98932.73;1529466;88;27375;-81
2021/12/01 01:46:01;;;;;;;17.02;11.93;;;;;;;1.72;92.93;98938.50;1616011;87;26297;-80
2021/12/01 01:48:30;;;;;;;17.92;11.68;;;;;;;1.73;92.74;98946.75;1573065;87;26194;-81
2021/12/01 01:51:04;;;;;;;17.50;10.88;;;;;;;1.70;92.40;98948.41;1636086;86;26055;-80
2021/12/01 01:53:33;;;;;;;16.23;10.72;;;;;;;1.70;92.56;98953.68;1564453;88;26395;-80
2021/12/01 01:56:05;;;;;;;17.92;10.95;;;;;;;1.71;92.46;98966.39;1616017;87;28326;-81
2021/12/01 01:58:32;;;;;;;16.93;10.05;;;;;;;1.69;92.50;98961.26;1587786;88;26085;-82
2021/12/01 02:01:07;;;;;;;14.85;10.30;;;;;;;1.69;92.31;98968.38;1579351;87;25553;-81
2021/12/01 02:03:44;;;;;;;16.32;11.25;;;;;;;1.69;92.13;98974.97;1610790;88;26340;-81
2021/12/01 02:06:14;;;;;;;16.70;10.95;;;;;;;1.66;92.09;98987.17;1610810;88;25870;-82
2021/12/01 02:08:43;;;;;;;14.83;10.47;;;;;;;1.65;91.85;98988.98;1566148;88;29032;-81
2021/12/01 02:11:12;;;;;;;17.32;11.43;;;;;;;1.63;91.38;98990.14;1563681;88;26689;-81
2021/12/01 02:13:41;;;;;;;18.07;11.75;;;;;;;1.62;91.58;98999.06;1631489;86;25874;-82
2021/12/01 02:16:10;;;;;;;16.65;11.43;;;;;;;1.59;91.45;99008.14;1586551;88;27707;-81
2021/12/01 02:18:41;;;;;;;16.25;10.98;;;;;;;1.58;91.51;99017.06;1561961;87;25878;-82
2021/12/01 02:21:15;;;;;;;16.25;9.85;;;;;;;1.60;91.11;99028.76;1608332;87;27493;-81
2021/12/01 02:23:49;;;;;;;17.20;10.88;;;;;;;1.58;91.04;99038.66;1566980;88;25838;-83
2021/12/01 02:26:20;;;;;;;19.73;12.03;;;;;;;1.56;91.16;99048.87;1574034;88;25827;-81
2021/12/01 02:28:51;;;;;;;17.42;11.93;;;;;;;1.55;91.17;99061.75;1586712;87;26157;-81
2021/12/01 02:31:20;;;;;;;19.17;12.03;;;;;;;1.55;91.18;99065.71;1579558;88;25496;-82
2021/12/01 02:33:47;;;;;;;17.95;10.90;;;;;;;1.53;91.27;99078.25;1598514;89;28238;-81
2021/12/01 02:36:15;;;;;;;19.92;12.82;;;;;;;1.52;91.30;99089.78;1582027;87;25985;-81
2021/12/01 02:38:47;;;;;;;16.10;11.68;;;;;;;1.53;91.24;99089.30;1606899;87;25957;-81
2021/12/01 02:41:15;;;;;;;;;;;;;;;1.52;91.16;99090.27;1654745;85;26155;-82
2021/12/01 02:43:45;;;;;;;17.98;11.70;;;;;;;1.50;90.87;99107.59;1592267;88;25962;-80
2021/12/01 02:46:11;;;;;;;17.00;11.43;;;;;;;1.48;90.67;99104.78;1573753;89;28117;-81
2021/12/01 02:48:42;;;;;;;16.80;11.78;;;;;;;1.46;90.69;99108.92;1566246;87;26322;-81
2021/12/01 02:51:11;;;;;;;15.95;11.08;;;;;;;1.47;90.67;99115.86;1627651;87;26146;-81
2021/12/01 02:53:39;;;;;;;16.97;10.60;;;;;;;1.48;90.53;99125.41;1611766;88;26914;-80
2021/12/01 02:56:08;;;;;;;15.98;10.45;;;;;;;1.46;89.66;99130.52;1562988;88;25192;-82
2021/12/01 02:58:40;;;;;;;14.75;10.43;;;;;;;1.44;89.77;99136.45;1545343;88;27301;-81
2021/12/01 03:01:12;;;;;;;15.43;9.30;;;;;;;1.41;89.25;99142.88;1592111;87;26024;-81
2021/12/01 03:03:40;;;;;;;14.43;8.88;;;;;;;1.38;88.98;99139.75;1592970;88;25368;-82
2021/12/01 03:06:08;;;;;;;12.07;8.35;;;;;;;1.34;88.25;99141.90;1586592;87;26137;-81
2021/12/01 03:08:36;;;;;;;15.35;9.60;;;;;;;1.31;88.11;99141.38;1580443;88;26312;-81
2021/12/01 03:11:03;;;;;;;13.43;9.10;;;;;;;1.27;88.44;99147.48;1624777;87;28134;-81
2021/12/01 03:13:30;;;;;;;13.85;9.43;;;;;;;1.25;88.35;99150.78;1610891;88;25932;-81
2021/12/01 03:15:58;;;;;;;15.72;9.38;;;;;;;1.23;88.56;99160.67;1548841;88;26135;-82
2021/12/01 03:18:26;;;;;;;14.78;9.78;;;;;;;1.22;88.57;99170.87;1580670;87;26160;-81
2021/12/01 03:20:54;;;;;;;15.23;10.70;;;;;;;1.21;88.57;99169.25;1627748;86;26040;-82
2021/12/01 03:23:22;;;;;;;16.27;10.32;;;;;;;1.21;88.69;99170.56;1625597;86;27544;-80
2021/12/01 03:25:49;;;;;;;15.30;9.75;;;;;;;1.23;88.87;99173.03;1566107;88;25927;-81
2021/12/01 03:28:17;;;;;;;14.25;9.38;;;;;;;1.24;88.94;99173.38;1546435;88;26691;-81
2021/12/01 03:30:45;;;;;;;16.23;10.13;;;;;;;1.24;88.71;99177.33;1592764;88;26195;-82
2021/12/01 03:33:16;;;;;;;15.55;9.78;;;;;;;1.20;88.45;99188.68;1629070;86;26244;-82
2021/12/01 03:35:46;;;;;;;14.58;9.18;;;;;;;1.14;88.34;99186.69;1607842;87;27501;-82
2021/12/01 03:38:13;;;;;;;16.02;9.75;;;;;;;1.10;88.31;99199.03;1608631;86;25925;-81
2021/12/01 03:40:41;;;;;;;15.65;9.75;;;;;;;1.07;88.42;99188.83;1610841;88;25822;-81
2021/12/01 03:43:08;;;;;;;13.32;8.28;;;;;;;1.06;88.66;99189.80;1621179;87;26256;-81
2021/12/01 03:45:35;;;;;;;13.68;9.93;;;;;;;1.07;88.41;99200.17;1548499;88;26055;-81
2021/12/01 03:48:03;;;;;;;14.40;9.20;;;;;;;1.05;88.63;99194.24;1579359;87;27560;-81
2021/12/01 03:50:30;;;;;;;14.80;9.85;;;;;;;1.09;88.55;99198.20;1610655;88;26020;-82
2021/12/01 03:52:57;;;;;;;15.48;10.13;;;;;;;1.08;88.49;99195.73;1594563;88;25817;-81
2021/12/01 03:55:24;;;;;;;16.32;10.98;;;;;;;1.04;88.22;99187.33;1570404;88;26711;-81
2021/12/01 03:57:51;;;;;;;15.58;10.15;;;;;;;1.03;88.43;99205.44;1581689;88;26071;-81
2021/12/01 04:00:19;;;;;;;14.55;9.80;;;;;;;1.07;88.70;99211.24;1590819;88;28370;-82
2021/12/01 04:02:47;;;;;;;16.40;10.23;;;;;;;1.09;88.81;99213.22;1618471;87;25921;-81
2021/12/01 04:05:15;;;;;;;18.35;10.70;;;;;;;1.11;88.92;99208.61;1553178;89;26053;-81
2021/12/01 04:07:42;;;;;;;17.87;11.08;;;;;;;1.14;88.87;99214.38;1533270;87;26628;-81
2021/12/01 04:10:14;;;;;;;16.90;11.18;;;;;;;1.13;88.70;99225.93;1611173;88;25874;-81
2021/12/01 04:12:46;;;;;;;17.77;11.30;;;;;;;1.12;88.71;99217.67;1608980;88;27798;-81
2021/12/01 04:15:11;;;;;;;16.62;11.20;;;;;;;1.11;88.54;99225.75;1568505;88;25958;-81
2021/12/01 04:17:41;;;;;;;17.32;10.60;;;;;;;1.08;88.49;99231.33;1583793;87;25870;-83
2021/12/01 04:20:12;;;;;;;16.95;10.55;;;;;;;1.05;88.52;99231.67;1627539;87;26750;-81
2021/12/01 04:22:40;;;;;;;17.98;11.48;;;;;;;1.05;88.64;99231.16;1631251;87;25579;-81
2021/12/01 04:25:09;;;;;;;18.48;11.53;;;;;;;1.07;88.81;99246.84;1587469;87;27753;-81
2021/12/01 04:27:36;;;;;;;23.35;12.18;;;;;;;1.08;88.72;99259.85;1583983;87;26696;-81
2021/12/01 04:30:07;;;;;;;17.40;11.08;;;;;;;1.08;88.81;99261.66;1608718;88;25892;-82
2021/12/01 04:32:34;;;;;;;19.87;11.60;;;;;;;1.08;88.85;99268.25;1607627;88;26145;-81
2021/12/01 04:35:01;;;;;;;21.17;12.37;;;;;;;1.08;88.88;99265.12;1600154;85;25807;-81
2021/12/01 04:37:29;;;;;;;17.37;12.43;;;;;;;1.06;88.79;99262.31;1585768;85;27204;-80
2021/12/01 04:39:56;;;;;;;21.15;11.25;;;;;;;1.07;88.93;99268.73;1632680;86;25893;-81
2021/12/01 04:42:23;;;;;;;19.05;11.68;;;;;;;1.05;88.56;99272.54;1625841;87;25944;-82
2021/12/01 04:44:51;;;;;;;19.80;11.60;;;;;;;1.04;88.66;99270.39;1575968;88;26926;-82
2021/12/01 04:47:26;;;;;;;18.35;11.40;;;;;;;1.04;88.62;99270.88;1548315;88;25417;-82
2021/12/01 04:49:48;;;;;;;18.20;11.50;;;;;;;1.03;88.61;99272.67;1587363;88;47506;-82
2021/12/01 04:52:15;;;;;;;17.17;10.72;;;;;;;1.01;88.75;99272.02;1626737;87;25806;-82
2021/12/01 04:54:42;;;;;;;19.55;11.20;;;;;;;1.02;88.83;99275.48;1586852;87;26123;-81
2021/12/01 04:57:09;;;;;;;16.10;10.43;;;;;;;1.02;88.98;99275.48;1584977;87;26092;-81
2021/12/01 04:59:37;;;;;;;18.48;11.90;;;;;;;1.02;88.99;99276.80;1587195;87;26189;-82
2021/12/01 05:02:05;;;;;;;22.98;14.33;;;;;;;1.01;89.19;99284.36;1610809;88;28157;-81
2021/12/01 05:04:32;;;;;;;16.93;11.12;;;;;;;1.04;89.45;99278.78;1564967;88;25879;-81
2021/12/01 05:06:59;;;;;;;23.70;12.80;;;;;;;1.06;89.40;99280.28;1606994;87;25581;-82
2021/12/01 05:09:26;;;;;;;19.37;12.55;;;;;;;1.07;89.46;99285.88;1590375;87;26727;-80
2021/12/01 05:11:53;;;;;;;23.73;12.95;;;;;;;1.06;89.49;99285.55;1617400;87;25335;-81
2021/12/01 05:14:20;;;;;;;25.20;14.30;;;;;;;1.08;89.55;99284.91;1609855;86;27649;-81
2021/12/01 05:16:47;;;;;;;22.73;14.38;;;;;;;1.07;89.58;99275.33;1609054;86;26049;-81
2021/12/01 05:19:14;;;;;;;22.55;13.75;;;;;;;1.08;89.62;99282.27;1604375;87;26635;-81
2021/12/01 05:21:42;;;;;;;23.75;14.35;;;;;;;1.09;89.66;99285.22;1594742;88;26710;-81
2021/12/01 05:24:09;;;;;;;24.00;14.68;;;;;;;1.09;89.65;99278.63;1577770;87;25987;-81
2021/12/01 05:26:37;;;;;;;23.77;14.40;;;;;;;1.09;89.65;99281.78;1605537;87;27592;-81
2021/12/01 05:29:05;;;;;;;24.05;14.63;;;;;;;1.10;89.78;99278.14;1574650;87;26669;-81
2021/12/01 05:31:32;;;;;;;26.00;14.98;;;;;;;1.09;89.72;99276.51;1617597;87;25755;-81
2021/12/01 05:33:59;;;;;;;27.20;16.57;;;;;;;1.13;89.89;99281.31;1576934;87;26099;-82
2021/12/01 05:36:27;;;;;;;25.50;15.95;;;;;;;1.19;89.93;99290.38;1597290;87;26053;-81
2021/12/01 05:38:54;;;;;;;28.05;15.70;;;;;;;1.23;89.91;99295.67;1582745;87;27398;-82
2021/12/01 05:41:21;;;;;;;26.45;15.53;;;;;;;1.25;89.89;99291.06;1617776;87;26296;-81
2021/12/01 05:43:48;;;;;;;23.15;14.33;;;;;;;1.27;89.87;99293.88;1618701;87;25850;-81
2021/12/01 05:46:15;;;;;;;25.52;14.60;;;;;;;1.28;89.76;99294.19;1594307;88;26235;-81
2021/12/01 05:48:42;;;;;;;25.08;15.00;;;;;;;1.30;89.87;99288.78;1606777;87;25595;-81
2021/12/01 05:51:09;;;;;;;26.80;15.08;;;;;;;1.33;89.86;99290.59;1608899;88;27570;-81
2021/12/01 05:53:36;;;;;;;25.30;15.32;;;;;;;1.35;89.82;99293.06;1565425;88;26067;-81
2021/12/01 05:56:04;;;;;;;28.23;16.62;;;;;;;1.37;89.89;99297.69;1586820;88;25867;-83
2021/12/01 05:58:31;;;;;;;26.42;15.60;;;;;;;1.39;89.92;99298.38;1610510;87;26137;-83
2021/12/01 06:00:58;;;;;;;23.98;14.20;;;;;;;1.40;89.89;99306.13;1545009;88;25993;-84
2021/12/01 06:03:26;;;;;;;25.90;15.43;;;;;;;1.43;89.97;99300.52;1620685;86;27534;-84
2021/12/01 06:05:53;;;;;;;26.17;16.17;;;;;;;1.44;89.94;99300.03;1552257;89;26525;-83
2021/12/01 06:08:20;;;;;;;28.70;17.42;;;;;;;1.43;89.90;99304.47;1608210;87;25828;-83
2021/12/01 06:10:47;;;;;;;27.73;15.72;;;;;;;1.44;89.91;99288.98;1583452;87;26029;-84
2021/12/01 06:13:17;;;;;;;25.55;15.65;;;;;;;1.46;89.98;99287.50;1612793;87;25978;-84
2021/12/01 06:15:45;;;;;;;25.77;15.03;;;;;;;1.48;89.96;99292.12;1564616;88;27675;-83
2021/12/01 06:18:12;;;;;;;26.90;16.25;;;;;;;1.47;89.99;99289.16;1592312;88;26295;-83
2021/12/01 06:20:40;;;;;;;28.47;16.95;;;;;;;1.49;90.01;99296.42;1547424;88;25814;-84
2021/12/01 06:23:07;;;;;;;26.30;16.20;;;;;;;1.46;89.97;99302.84;1607414;87;26277;-83
2021/12/01 06:25:34;;;;;;;26.17;16.02;;;;;;;1.48;90.01;99308.78;1629627;86;26657;-83
2021/12/01 06:28:01;;;;;;;23.70;15.05;;;;;;;1.46;89.90;99316.03;1610135;88;27569;-84
2021/12/01 06:30:33;;;;;;;27.65;16.30;;;;;;;1.42;89.83;99320.47;1586336;88;25963;-83
2021/12/01 06:33:00;;;;;;;33.10;21.97;;;;;;;1.39;89.86;99313.70;1574820;88;26533;-84
2021/12/01 06:35:27;;;;;;;34.35;22.65;;;;;;;1.39;90.02;99315.53;1583640;88;26303;-83
2021/12/01 06:37:55;;;;;;;27.17;18.73;;;;;;;1.39;90.00;99312.89;1610137;88;25898;-83
2021/12/01 06:40:24;;;;;;;28.42;17.25;;;;;;;1.38;90.03;99302.83;1604071;87;27551;-83
2021/12/01 06:42:51;;;;;;;31.25;19.37;;;;;;;1.39;90.12;99305.78;1610883;87;26491;-83
2021/12/01 06:45:18;;;;;;;27.22;17.02;;;;;;;1.42;90.09;99312.55;1622537;87;26265;-83
2021/12/01 06:47:46;;;;;;;29.27;17.92;;;;;;;1.37;89.81;99313.52;1625458;87;26838;-83
2021/12/01 06:50:15;;;;;;;27.80;18.27;;;;;;;1.35;89.83;99315.00;1575119;87;26293;-83
2021/12/01 06:52:42;;;;;;;31.65;19.48;;;;;;;1.33;89.72;99324.89;1604569;87;27469;-81
2021/12/01 06:55:10;;;;;;;32.23;19.65;;;;;;;1.32;89.80;99321.10;1571197;87;25940;-84
2021/12/01 06:57:37;;;;;;;29.55;18.48;;;;;;;1.31;89.71;99320.75;1621296;88;25939;-84
2021/12/01 07:00:08;;;;;;;34.53;19.15;;;;;;;1.28;89.64;99324.53;1593714;88;26120;-83
2021/12/01 07:02:35;;;;;;;32.70;19.55;;;;;;;1.24;89.56;99335.58;1586296;88;25897;-83
2021/12/01 07:05:03;;;;;;;35.17;19.90;;;;;;;1.22;89.60;99330.95;1614380;88;27475;-83
2021/12/01 07:07:30;;;;;;;30.92;19.05;;;;;;;1.23;89.68;99330.80;1586400;89;25809;-84
2021/12/01 07:09:57;;;;;;;30.32;19.55;;;;;;;1.24;89.81;99332.95;1575051;88;25820;-83
2021/12/01 07:12:24;;;;;;;27.85;18.48;;;;;;;1.21;89.73;99327.97;1594863;88;26130;-83
2021/12/01 07:14:52;;;;;;;27.73;18.12;;;;;;;1.18;89.69;99329.59;1615687;87;25902;-84
2021/12/01 07:17:20;;;;;;;31.23;18.87;;;;;;;1.15;89.71;99326.80;1605652;87;27479;-84
2021/12/01 07:19:48;;;;;;;27.48;17.80;;;;;;;1.14;89.81;99329.58;1546223;88;25857;-83
2021/12/01 07:22:15;;;;;;;31.33;18.70;;;;;;;1.12;89.86;99331.55;1609480;88;25863;-82
2021/12/01 07:24:43;;;;;;;33.70;19.27;;;;;;;1.12;90.00;99342.09;1585821;89;26184;-80
2021/12/01 07:27:11;;;;;;;29.98;18.82;;;;;;;1.10;90.09;99334.35;1596194;88;26006;-81
2021/12/01 07:29:38;;;;;;;33.75;19.42;;;;;;;1.13;90.17;99338.49;1569615;88;27365;-82
2021/12/01 07:32:05;;;;;;;34.48;19.10;;;;;;;1.11;90.12;99343.90;1591046;88;25982;-79
2021/12/01 07:34:40;;;;;;;33.88;19.50;;;;;;;1.11;90.19;99332.55;1616497;88;26669;-81
2021/12/01 07:37:01;;;;;;;36.15;20.62;;;;;;;1.09;90.14;99331.36;1583815;88;26971;-80
2021/12/01 07:39:28;;;;;;;35.65;20.32;;;;;;;1.09;90.23;99334.52;1561573;90;26397;-80
2021/12/01 07:41:55;;;;;;;33.45;19.00;;;;;;;1.07;90.26;99335.17;1597886;89;28290;-80
2021/12/01 07:44:22;;;;;;;33.00;18.55;;;;;;;1.07;90.38;99337.81;1614666;87;25806;-80
2021/12/01 07:46:49;;;;;;;31.62;18.00;;;;;;;1.07;90.44;99333.85;1614100;88;25802;-82
2021/12/01 07:49:19;;;;;;;35.98;19.50;;;;;;;1.08;90.61;99334.17;1559410;88;26121;-81
2021/12/01 07:51:46;;;;;;;32.33;19.87;;;;;;;1.08;90.69;99331.05;1569284;89;25803;-81
2021/12/01 07:54:13;;;;;;;31.80;18.52;;;;;;;1.10;90.79;99328.24;1615433;86;27515;-80
2021/12/01 07:56:40;;;;;;;30.62;17.45;;;;;;;1.09;90.81;99326.61;1624561;86;26013;-80
2021/12/01 07:59:07;;;;;;;28.55;17.50;;;;;;;1.08;90.86;99323.14;1553138;88;25892;-81
2021/12/01 08:01:34;;;;;;;31.12;16.95;;;;;;;1.13;91.05;99319.55;1595566;88;25982;-81
2021/12/01 08:04:01;;;;;;;29.63;17.12;;;;;;;1.15;91.07;99322.02;1562742;89;25919;-80
2021/12/01 08:06:30;;;;;;;35.52;19.25;;;;;;;1.18;91.27;99318.56;1606923;88;27279;-80
2021/12/01 08:09:00;;;;;;;29.70;16.65;;;;;;;1.20;91.28;99309.16;1566762;88;25869;-82
2021/12/01 08:11:25;;;;;;;29.90;17.87;;;;;;;1.20;91.28;99317.91;1568765;88;25550;-80
2021/12/01 08:13:52;;;;;;;37.05;20.02;;;;;;;1.19;91.20;99316.76;1614173;88;26242;-82
2021/12/01 08:16:19;;;;;;;32.10;18.52;;;;;;;1.18;91.29;99315.92;1592243;88;25813;-80
2021/12/01 08:18:56;;;;;;;28.62;17.62;;;;;;;1.21;91.43;99317.42;1607510;88;27544;-81
2021/12/01 08:21:24;;;;;;;29.07;16.95;;;;;;;1.21;91.47;99312.98;1606608;88;26069;-81
2021/12/01 08:23:52;;;;;;;30.25;18.20;;;;;;;1.21;91.58;99314.30;1612556;88;25867;-81
2021/12/01 08:26:21;;;;;;;28.85;17.67;;;;;;;1.21;91.68;99322.21;1605134;88;26231;-81
2021/12/01 08:28:48;;;;;;;35.15;18.85;;;;;;;1.22;91.84;99320.41;1586737;88;26590;-79
2021/12/01 08:31:17;;;;;;;33.98;19.30;;;;;;;1.24;92.10;99319.23;1596896;88;28283;-82
2021/12/01 08:33:46;;;;;;;34.58;19.82;;;;;;;1.27;92.26;99320.73;1606737;87;26016;-81
2021/12/01 08:36:13;;;;;;;34.43;19.17;;;;;;;1.30;92.40;99319.95;1614674;88;26031;-82
2021/12/01 08:38:42;;;;;;;34.83;19.23;;;;;;;1.33;92.58;99323.57;1590009;88;26108;-81
2021/12/01 08:41:10;;;;;;;31.82;18.73;;;;;;;1.36;92.67;99310.08;1620863;87;25923;-82
2021/12/01 08:43:37;;;;;;;39.78;21.35;;;;;;;1.39;92.81;99308.94;1590166;87;27555;-82
2021/12/01 08:46:06;;;;;;;35.70;19.82;;;;;;;1.41;92.92;99308.28;1590043;88;26627;-81
2021/12/01 08:48:34;;;;;;;36.40;20.48;;;;;;;1.44;93.09;99298.70;1594642;87;25930;-81
2021/12/01 08:51:02;;;;;;;41.65;20.37;;;;;;;1.49;93.20;99295.11;1593434;88;26158;-82
2021/12/01 08:53:37;;;;;;;36.15;19.87;;;;;;;1.52;93.22;99289.00;1589601;88;26040;-82
2021/12/01 08:56:05;;;;;;;36.95;20.27;;;;;;;1.58;93.35;99290.19;1613901;87;27480;-81
2021/12/01 08:58:32;;;;;;;37.88;20.12;;;;;;;1.64;93.31;99294.81;1564468;88;25931;-81
2021/12/01 09:01:00;;;;;;;32.67;19.55;;;;;;;1.68;93.35;99288.70;1564542;88;25916;-82
2021/12/01 09:03:27;;;;;;;35.88;23.05;;;;;;;1.72;93.45;99292.18;1616931;87;26115;-81
2021/12/01 09:05:55;;;;;;;39.27;22.27;;;;;;;1.78;93.53;99282.78;1615165;88;25956;-81
2021/12/01 09:08:24;;;;;;;32.73;20.37;;;;;;;1.82;93.53;99278.33;1569927;88;27557;-81
2021/12/01 09:10:56;;;;;;;39.38;22.45;;;;;;;1.90;93.50;99277.53;1587766;88;26040;-81
2021/12/01 09:13:26;;;;;;;32.50;18.90;;;;;;;1.92;93.32;99275.06;1580650;88;26117;-82
2021/12/01 09:15:55;;;;;;;33.38;20.25;;;;;;;1.95;93.33;99265.96;1584102;88;26156;-81
2021/12/01 09:18:27;;;;;;;35.52;20.40;;;;;;;1.99;93.46;99267.31;1563765;90;25423;-81
2021/12/01 09:20:54;;;;;;;34.35;21.87;;;;;;;2.03;93.44;99258.86;1598657;88;28224;-81
2021/12/01 09:23:22;;;;;;;37.28;22.15;;;;;;;2.09;93.36;99258.72;1614992;88;26025;-81
2021/12/01 09:25:49;;;;;;;39.58;22.95;;;;;;;2.11;93.23;99252.28;1615171;88;25896;-81
2021/12/01 09:28:19;;;;;;;35.95;20.57;;;;;;;2.15;93.23;99244.36;1582242;88;26186;-83
2021/12/01 09:30:47;;;;;;;32.40;19.55;;;;;;;2.19;93.13;99244.84;1574773;88;26240;-81
2021/12/01 09:33:15;;;;;;;32.50;20.30;;;;;;;2.22;93.27;99229.47;1531744;89;27566;-81
2021/12/01 09:35:43;;;;;;;36.20;21.52;;;;;;;2.27;93.14;99232.45;1568762;88;26147;-81
2021/12/01 09:38:13;;;;;;;33.78;20.27;;;;;;;2.30;93.08;99232.13;1587727;89;26539;-81
2021/12/01 09:40:46;;;;;;;37.03;19.98;;;;;;;2.34;93.10;99225.51;1586627;88;26570;-81
2021/12/01 09:43:14;;;;;;;33.95;19.52;;;;;;;2.40;93.16;99216.56;1542893;89;25956;-81
2021/12/01 09:45:42;;;;;;;33.88;19.42;;;;;;;2.44;92.99;99217.38;1551702;88;28333;-81
2021/12/01 09:48:10;;;;;;;38.00;20.43;;;;;;;2.47;92.91;99213.58;1578552;88;25933;-81
2021/12/01 09:50:37;;;;;;;37.17;20.88;;;;;;;2.51;92.92;99218.36;1589550;88;26054;-81
2021/12/01 09:53:05;;;;;;;37.67;19.55;;;;;;;2.54;92.62;99215.89;1587703;89;26207;-81
2021/12/01 09:55:32;;;;;;;42.98;22.73;;;;;;;2.54;92.59;99211.44;1568052;88;25959;-80
2021/12/01 09:58:11;;;;;;;35.13;20.72;;;;;;;2.55;92.48;99208.27;1586266;88;27488;-82
2021/12/01 10:00:43;;;;;;;36.83;22.20;;;;;;;2.58;92.54;99202.66;1585658;88;25953;-82
2021/12/01 10:03:11;;;;;;;35.98;21.60;;;;;;;2.61;92.60;99201.80;1615595;88;25751;-81
2021/12/01 10:06:17;;;;;;;36.88;21.77;;;;;;;2.66;92.42;99201.30;1632427;86;26170;-83
2021/12/01 10:08:45;;;;;;;36.53;20.37;;;;;;;2.69;92.46;99200.48;1597112;88;26611;-81
2021/12/01 10:11:17;;;;;;;33.38;19.98;;;;;;;2.72;92.48;99197.97;1592243;87;27412;-82
2021/12/01 10:13:52;;;;;;;39.20;23.35;;;;;;;2.77;92.46;99197.80;1624263;87;25932;-83
2021/12/01 10:16:20;;;;;;;38.42;21.62;;;;;;;2.79;92.50;99198.45;1594082;88;25203;-85
2021/12/01 10:18:52;;;;;;;38.45;22.07;;;;;;;2.83;92.47;99192.31;1578791;89;26141;-82
2021/12/01 10:21:38;;;;;;;41.08;23.47;;;;;;;2.88;92.48;99193.47;1542602;90;25604;-83
2021/12/01 10:24:27;;;;;;;38.33;21.75;;;;;;;2.92;92.52;99188.16;1625267;87;28229;-83
2021/12/01 10:27:01;;;;;;;39.83;22.82;;;;;;;2.97;92.49;99191.61;1619817;87;25818;-81
2021/12/01 10:29:35;;;;;;;42.95;24.23;;;;;;;2.99;92.38;99178.52;1617409;88;25952;-83
2021/12/01 10:32:10;;;;;;;37.63;22.90;;;;;;;3.01;92.24;99181.84;1592246;87;26866;-81
2021/12/01 10:34:43;;;;;;;40.50;23.70;;;;;;;3.03;92.40;99178.52;1616539;87;25800;-82
2021/12/01 10:37:33;;;;;;;38.85;22.90;;;;;;;3.07;92.22;99171.05;1589369;87;27533;-81
2021/12/01 10:40:24;;;;;;;38.60;22.93;;;;;;;3.09;91.85;99162.44;1568869;88;25446;-82
2021/12/01 10:43:11;;;;;;;35.28;21.02;;;;;;;3.12;91.90;99160.26;1609078;87;26463;-82
2021/12/01 10:45:42;;;;;;;40.92;22.77;;;;;;;3.15;91.75;99153.80;1596807;88;26578;-82
2021/12/01 10:48:13;;;;;;;34.80;21.95;;;;;;;3.18;91.82;99148.17;1592948;88;25804;-81
2021/12/01 10:50:42;;;;;;;37.90;21.57;;;;;;;3.19;91.64;99141.86;1612206;88;27500;-83
2021/12/01 10:53:18;;;;;;;36.68;21.00;;;;;;;3.22;91.68;99146.82;1590927;88;25891;-82
2021/12/01 10:55:56;;;;;;;31.87;20.48;;;;;;;3.24;91.40;99147.47;1626307;87;25327;-81
2021/12/01 10:58:34;;;;;;;36.55;21.20;;;;;;;3.25;91.26;99147.77;1610267;88;26824;-82
2021/12/01 11:01:03;;;;;;;35.17;21.55;;;;;;;3.24;90.95;99143.50;1594211;88;26450;-82
2021/12/01 11:03:33;;;;;;;33.33;20.17;;;;;;;3.25;90.87;99131.89;1606386;88;27405;-82
2021/12/01 11:06:22;;;;;;;28.77;17.87;;;;;;;3.26;90.83;99128.27;1616092;87;25796;-81
2021/12/01 11:08:56;;;;;;;26.48;16.70;;;;;;;3.29;90.73;99127.09;1585077;88;26535;-82
2021/12/01 11:11:27;;;;;;;28.73;18.77;;;;;;;3.27;90.44;99111.41;1587318;88;26101;-81
2021/12/01 11:13:54;;;;;;;32.23;19.23;;;;;;;3.28;90.67;99106.42;1573416;88;25950;-83
2021/12/01 11:16:22;;;;;;;30.25;17.77;;;;;;;3.29;90.59;99106.76;1591170;88;27533;-80
2021/12/01 11:18:51;;;;;;;34.35;20.72;;;;;;;3.31;90.50;99104.76;1587918;89;25609;-82
2021/12/01 11:21:24;;;;;;;31.05;20.37;;;;;;;3.36;90.69;99101.58;1588196;88;25766;-81
2021/12/01 11:23:57;;;;;;;31.82;19.20;;;;;;;3.37;90.65;99100.08;1585944;89;26004;-83
2021/12/01 11:26:29;;;;;;;28.05;18.52;;;;;;;3.38;90.56;99095.61;1611591;85;25380;-81
2021/12/01 11:29:09;;;;;;;35.88;21.55;;;;;;;3.38;90.53;99089.80;1614409;88;28645;-82
2021/12/01 11:31:40;;;;;;;31.50;19.62;;;;;;;3.41;90.67;99089.94;1617507;88;26037;-82
2021/12/01 11:34:14;;;;;;;28.57;19.05;;;;;;;3.42;90.51;99091.08;1581636;90;25875;-81
2021/12/01 11:36:50;;;;;;;27.58;18.05;;;;;;;3.42;90.42;99080.49;1573780;90;26094;-81
2021/12/01 11:39:23;;;;;;;28.65;17.20;;;;;;;3.42;90.25;99077.05;1594618;88;25895;-81
2021/12/01 11:41:53;;;;;;;28.92;17.45;;;;;;;3.41;90.13;99072.73;1594508;88;27547;-81
2021/12/01 11:44:21;;;;;;;31.60;19.75;;;;;;;3.40;90.26;99069.79;1594296;88;25886;-82